sensor_id;sensor_type;location;lat;lon;timestamp;temperature;humidity
54034;DHT22;39952;40.122;18.294;2022-09-17T00:00:49;28.90;64.30
54034;DHT22;39952;40.122;18.294;2022-09-17T00:03:58;28.90;64.80
54034;DHT22;39952;40.122;18.294;2022-09-17T00:07:09;28.90;64.50
54034;DHT22;39952;40.122;18.294;2022-09-17T00:10:17;28.90;64.50
54034;DHT22;39952;40.122;18.294;2022-09-17T00:13:24;28.90;64.50
54034;DHT22;39952;40.122;18.294;2022-09-17T00:16:33;29.00;64.50
54034;DHT22;39952;40.122;18.294;2022-09-17T00:19:41;29.00;64.30
54034;DHT22;39952;40.122;18.294;2022-09-17T00:22:49;29.00;64.20
54034;DHT22;39952;40.122;18.294;2022-09-17T00:25:56;29.00;64.20
54034;DHT22;39952;40.122;18.294;2022-09-17T00:29:04;29.10;64.00
54034;DHT22;39952;40.122;18.294;2022-09-17T00:32:11;29.10;63.90
54034;DHT22;39952;40.122;18.294;2022-09-17T00:35:18;29.00;64.20
54034;DHT22;39952;40.122;18.294;2022-09-17T00:38:27;28.80;64.40
54034;DHT22;39952;40.122;18.294;2022-09-17T00:41:34;28.50;65.30
54034;DHT22;39952;40.122;18.294;2022-09-17T00:44:47;28.60;64.90
54034;DHT22;39952;40.122;18.294;2022-09-17T00:47:56;28.80;65.00
54034;DHT22;39952;40.122;18.294;2022-09-17T00:51:03;28.80;64.10
54034;DHT22;39952;40.122;18.294;2022-09-17T00:54:12;28.90;63.60
54034;DHT22;39952;40.122;18.294;2022-09-17T00:57:19;28.90;63.30
54034;DHT22;39952;40.122;18.294;2022-09-17T01:00:26;28.90;63.30
54034;DHT22;39952;40.122;18.294;2022-09-17T01:03:33;28.80;63.70
54034;DHT22;39952;40.122;18.294;2022-09-17T01:06:43;29.00;63.20
54034;DHT22;39952;40.122;18.294;2022-09-17T01:09:57;29.10;62.80
54034;DHT22;39952;40.122;18.294;2022-09-17T01:13:16;28.80;63.10
54034;DHT22;39952;40.122;18.294;2022-09-17T01:16:30;28.80;63.10
54034;DHT22;39952;40.122;18.294;2022-09-17T01:23:39;28.90;62.50
54034;DHT22;39952;40.122;18.294;2022-09-17T01:31:12;28.80;61.40
54034;DHT22;39952;40.122;18.294;2022-09-17T01:34:25;28.80;63.60
54034;DHT22;39952;40.122;18.294;2022-09-17T01:37:39;28.40;64.80
54034;DHT22;39952;40.122;18.294;2022-09-17T01:40:52;28.00;66.60
54034;DHT22;39952;40.122;18.294;2022-09-17T01:44:05;27.70;66.70
54034;DHT22;39952;40.122;18.294;2022-09-17T01:47:20;27.40;69.60
54034;DHT22;39952;40.122;18.294;2022-09-17T01:50:32;27.20;70.90
54034;DHT22;39952;40.122;18.294;2022-09-17T01:53:44;27.10;71.30
54034;DHT22;39952;40.122;18.294;2022-09-17T01:56:57;27.10;71.70
54034;DHT22;39952;40.122;18.294;2022-09-17T02:00:08;26.90;73.10
54034;DHT22;39952;40.122;18.294;2022-09-17T02:03:21;27.10;72.30
54034;DHT22;39952;40.122;18.294;2022-09-17T02:06:32;27.10;73.10
54034;DHT22;39952;40.122;18.294;2022-09-17T02:09:44;27.30;71.60
54034;DHT22;39952;40.122;18.294;2022-09-17T02:12:55;27.40;71.00
54034;DHT22;39952;40.122;18.294;2022-09-17T02:16:06;27.50;70.40
54034;DHT22;39952;40.122;18.294;2022-09-17T02:19:17;27.40;71.40
54034;DHT22;39952;40.122;18.294;2022-09-17T02:22:31;27.30;71.40
54034;DHT22;39952;40.122;18.294;2022-09-17T02:25:43;27.30;71.90
54034;DHT22;39952;40.122;18.294;2022-09-17T02:28:55;27.30;71.50
54034;DHT22;39952;40.122;18.294;2022-09-17T02:32:05;27.30;72.00
54034;DHT22;39952;40.122;18.294;2022-09-17T02:35:14;27.30;71.40
54034;DHT22;39952;40.122;18.294;2022-09-17T02:38:23;27.60;70.50
54034;DHT22;39952;40.122;18.294;2022-09-17T02:41:39;27.50;70.00
54034;DHT22;39952;40.122;18.294;2022-09-17T02:44:59;27.30;71.00
54034;DHT22;39952;40.122;18.294;2022-09-17T02:48:32;27.30;71.30
54034;DHT22;39952;40.122;18.294;2022-09-17T02:51:52;27.10;71.20
54034;DHT22;39952;40.122;18.294;2022-09-17T02:55:10;27.30;71.40
54034;DHT22;39952;40.122;18.294;2022-09-17T02:58:21;27.30;70.80
54034;DHT22;39952;40.122;18.294;2022-09-17T03:01:34;27.20;71.30
54034;DHT22;39952;40.122;18.294;2022-09-17T03:04:45;27.30;71.50
54034;DHT22;39952;40.122;18.294;2022-09-17T03:07:56;27.20;71.60
54034;DHT22;39952;40.122;18.294;2022-09-17T03:11:05;27.00;72.00
54034;DHT22;39952;40.122;18.294;2022-09-17T03:14:14;26.80;72.20
54034;DHT22;39952;40.122;18.294;2022-09-17T03:17:20;27.00;71.90
54034;DHT22;39952;40.122;18.294;2022-09-17T03:20:27;27.30;71.50
54034;DHT22;39952;40.122;18.294;2022-09-17T03:23:35;26.90;71.80
54034;DHT22;39952;40.122;18.294;2022-09-17T03:26:42;26.60;72.50
54034;DHT22;39952;40.122;18.294;2022-09-17T03:29:48;26.40;73.60
54034;DHT22;39952;40.122;18.294;2022-09-17T03:32:55;26.60;73.50
54034;DHT22;39952;40.122;18.294;2022-09-17T03:36:02;26.40;73.00
54034;DHT22;39952;40.122;18.294;2022-09-17T03:39:10;26.40;73.10
54034;DHT22;39952;40.122;18.294;2022-09-17T03:42:17;26.20;73.50
54034;DHT22;39952;40.122;18.294;2022-09-17T03:45:23;26.10;73.80
54034;DHT22;39952;40.122;18.294;2022-09-17T03:48:30;26.40;73.50
54034;DHT22;39952;40.122;18.294;2022-09-17T03:51:41;26.10;74.80
54034;DHT22;39952;40.122;18.294;2022-09-17T03:54:49;26.10;75.70
54034;DHT22;39952;40.122;18.294;2022-09-17T03:57:56;26.10;76.30
54034;DHT22;39952;40.122;18.294;2022-09-17T04:01:03;26.30;76.30
54034;DHT22;39952;40.122;18.294;2022-09-17T04:04:10;26.50;76.40
54034;DHT22;39952;40.122;18.294;2022-09-17T04:07:16;26.80;76.10
54034;DHT22;39952;40.122;18.294;2022-09-17T04:10:25;26.80;77.00
54034;DHT22;39952;40.122;18.294;2022-09-17T04:13:32;26.80;77.80
54034;DHT22;39952;40.122;18.294;2022-09-17T04:16:39;26.80;77.90
54034;DHT22;39952;40.122;18.294;2022-09-17T04:19:46;26.90;78.20
54034;DHT22;39952;40.122;18.294;2022-09-17T04:22:53;26.90;78.50
54034;DHT22;39952;40.122;18.294;2022-09-17T04:26:02;26.90;79.00
54034;DHT22;39952;40.122;18.294;2022-09-17T04:29:08;27.00;78.90
54034;DHT22;39952;40.122;18.294;2022-09-17T04:32:15;26.90;79.30
54034;DHT22;39952;40.122;18.294;2022-09-17T04:35:22;26.80;79.50
54034;DHT22;39952;40.122;18.294;2022-09-17T04:38:28;26.80;79.70
54034;DHT22;39952;40.122;18.294;2022-09-17T04:41:37;26.70;80.00
54034;DHT22;39952;40.122;18.294;2022-09-17T04:44:44;26.80;80.30
54034;DHT22;39952;40.122;18.294;2022-09-17T04:47:51;27.20;79.40
54034;DHT22;39952;40.122;18.294;2022-09-17T04:50:58;27.70;77.70
54034;DHT22;39952;40.122;18.294;2022-09-17T04:54:05;28.00;76.20
54034;DHT22;39952;40.122;18.294;2022-09-17T04:57:13;28.10;75.10
54034;DHT22;39952;40.122;18.294;2022-09-17T05:00:20;28.30;74.30
54034;DHT22;39952;40.122;18.294;2022-09-17T05:03:28;28.20;74.00
54034;DHT22;39952;40.122;18.294;2022-09-17T05:06:36;28.20;74.40
54034;DHT22;39952;40.122;18.294;2022-09-17T05:09:43;27.90;75.20
54034;DHT22;39952;40.122;18.294;2022-09-17T05:12:52;28.20;74.40
54034;DHT22;39952;40.122;18.294;2022-09-17T05:15:59;28.30;74.90
54034;DHT22;39952;40.122;18.294;2022-09-17T05:19:07;28.30;74.60
54034;DHT22;39952;40.122;18.294;2022-09-17T05:22:14;28.40;74.50
54034;DHT22;39952;40.122;18.294;2022-09-17T05:25:23;28.50;74.20
54034;DHT22;39952;40.122;18.294;2022-09-17T05:28:31;28.80;73.50
54034;DHT22;39952;40.122;18.294;2022-09-17T05:31:38;29.00;73.20
54034;DHT22;39952;40.122;18.294;2022-09-17T05:34:45;29.00;73.10
54034;DHT22;39952;40.122;18.294;2022-09-17T05:37:56;29.00;73.30
54034;DHT22;39952;40.122;18.294;2022-09-17T05:41:04;29.10;73.00
54034;DHT22;39952;40.122;18.294;2022-09-17T05:44:13;29.30;72.00
54034;DHT22;39952;40.122;18.294;2022-09-17T05:47:22;29.30;70.90
54034;DHT22;39952;40.122;18.294;2022-09-17T05:50:29;29.30;71.50
54034;DHT22;39952;40.122;18.294;2022-09-17T05:53:36;29.20;72.00
54034;DHT22;39952;40.122;18.294;2022-09-17T05:56:43;29.20;70.80
54034;DHT22;39952;40.122;18.294;2022-09-17T05:59:51;29.40;70.80
54034;DHT22;39952;40.122;18.294;2022-09-17T06:02:58;29.40;71.50
54034;DHT22;39952;40.122;18.294;2022-09-17T06:06:05;29.00;72.40
54034;DHT22;39952;40.122;18.294;2022-09-17T06:09:12;28.60;73.70
54034;DHT22;39952;40.122;18.294;2022-09-17T06:12:19;28.70;73.50
54034;DHT22;39952;40.122;18.294;2022-09-17T06:15:27;28.80;74.00
54034;DHT22;39952;40.122;18.294;2022-09-17T06:18:34;29.10;73.60
54034;DHT22;39952;40.122;18.294;2022-09-17T06:21:40;29.10;73.30
54034;DHT22;39952;40.122;18.294;2022-09-17T06:24:47;29.40;71.90
54034;DHT22;39952;40.122;18.294;2022-09-17T06:27:54;29.70;70.10
54034;DHT22;39952;40.122;18.294;2022-09-17T06:31:04;29.80;69.60
54034;DHT22;39952;40.122;18.294;2022-09-17T06:34:11;30.20;69.10
54034;DHT22;39952;40.122;18.294;2022-09-17T06:37:18;30.20;69.80
54034;DHT22;39952;40.122;18.294;2022-09-17T06:40:24;30.10;69.80
54034;DHT22;39952;40.122;18.294;2022-09-17T06:43:31;30.30;69.50
54034;DHT22;39952;40.122;18.294;2022-09-17T06:46:39;30.20;70.10
54034;DHT22;39952;40.122;18.294;2022-09-17T06:49:48;30.00;70.90
54034;DHT22;39952;40.122;18.294;2022-09-17T06:52:55;29.80;71.50
54034;DHT22;39952;40.122;18.294;2022-09-17T06:56:03;29.60;72.20
54034;DHT22;39952;40.122;18.294;2022-09-17T06:59:11;29.90;71.20
54034;DHT22;39952;40.122;18.294;2022-09-17T07:02:19;30.40;68.90
54034;DHT22;39952;40.122;18.294;2022-09-17T07:05:28;30.90;67.50
54034;DHT22;39952;40.122;18.294;2022-09-17T07:08:37;31.00;67.10
54034;DHT22;39952;40.122;18.294;2022-09-17T07:11:44;31.20;66.10
54034;DHT22;39952;40.122;18.294;2022-09-17T07:14:51;31.30;65.60
54034;DHT22;39952;40.122;18.294;2022-09-17T07:17:59;31.50;65.60
54034;DHT22;39952;40.122;18.294;2022-09-17T07:21:08;31.30;66.50
54034;DHT22;39952;40.122;18.294;2022-09-17T07:24:15;31.20;65.90
54034;DHT22;39952;40.122;18.294;2022-09-17T07:27:22;31.00;66.90
54034;DHT22;39952;40.122;18.294;2022-09-17T07:30:28;30.50;68.10
54034;DHT22;39952;40.122;18.294;2022-09-17T07:33:38;30.60;67.40
54034;DHT22;39952;40.122;18.294;2022-09-17T07:36:44;30.40;67.70
54034;DHT22;39952;40.122;18.294;2022-09-17T07:39:51;30.70;66.40
54034;DHT22;39952;40.122;18.294;2022-09-17T07:42:57;30.80;65.90
54034;DHT22;39952;40.122;18.294;2022-09-17T07:46:05;30.90;65.20
54034;DHT22;39952;40.122;18.294;2022-09-17T07:49:14;30.80;65.10
54034;DHT22;39952;40.122;18.294;2022-09-17T07:52:21;30.80;64.80
54034;DHT22;39952;40.122;18.294;2022-09-17T07:55:28;30.80;65.00
54034;DHT22;39952;40.122;18.294;2022-09-17T07:58:35;30.80;65.50
54034;DHT22;39952;40.122;18.294;2022-09-17T08:01:43;30.50;67.40
54034;DHT22;39952;40.122;18.294;2022-09-17T08:04:51;30.30;64.00
54034;DHT22;39952;40.122;18.294;2022-09-17T08:07:58;30.00;63.90
54034;DHT22;39952;40.122;18.294;2022-09-17T08:11:07;29.80;63.20
54034;DHT22;39952;40.122;18.294;2022-09-17T08:14:14;29.70;62.90
54034;DHT22;39952;40.122;18.294;2022-09-17T08:17:22;29.70;63.00
54034;DHT22;39952;40.122;18.294;2022-09-17T08:20:30;29.30;64.20
54034;DHT22;39952;40.122;18.294;2022-09-17T08:23:38;29.30;65.60
54034;DHT22;39952;40.122;18.294;2022-09-17T08:26:45;29.10;65.70
54034;DHT22;39952;40.122;18.294;2022-09-17T08:29:52;28.80;66.60
54034;DHT22;39952;40.122;18.294;2022-09-17T08:32:59;28.80;67.10
54034;DHT22;39952;40.122;18.294;2022-09-17T08:36:10;28.80;67.40
54034;DHT22;39952;40.122;18.294;2022-09-17T08:39:17;28.70;67.70
54034;DHT22;39952;40.122;18.294;2022-09-17T08:42:29;28.70;68.10
54034;DHT22;39952;40.122;18.294;2022-09-17T08:45:37;28.80;67.70
54034;DHT22;39952;40.122;18.294;2022-09-17T08:48:46;29.00;67.60
54034;DHT22;39952;40.122;18.294;2022-09-17T08:52:21;29.30;64.70
54034;DHT22;39952;40.122;18.294;2022-09-17T08:55:39;29.60;64.20
54034;DHT22;39952;40.122;18.294;2022-09-17T08:58:58;29.30;65.30
54034;DHT22;39952;40.122;18.294;2022-09-17T09:02:19;29.20;65.40
54034;DHT22;39952;40.122;18.294;2022-09-17T09:05:30;28.90;67.60
54034;DHT22;39952;40.122;18.294;2022-09-17T09:08:45;28.70;69.00
54034;DHT22;39952;40.122;18.294;2022-09-17T09:12:01;28.40;70.20
54034;DHT22;39952;40.122;18.294;2022-09-17T09:18:39;27.90;71.70
54034;DHT22;39952;40.122;18.294;2022-09-17T09:21:59;28.20;69.80
54034;DHT22;39952;40.122;18.294;2022-09-17T09:25:20;28.00;71.50
54034;DHT22;39952;40.122;18.294;2022-09-17T09:28:45;28.30;70.70
54034;DHT22;39952;40.122;18.294;2022-09-17T09:32:02;29.00;68.60
54034;DHT22;39952;40.122;18.294;2022-09-17T09:35:22;30.10;67.00
54034;DHT22;39952;40.122;18.294;2022-09-17T09:38:32;31.90;61.10
54034;DHT22;39952;40.122;18.294;2022-09-17T09:41:46;33.30;57.80
54034;DHT22;39952;40.122;18.294;2022-09-17T09:44:56;34.30;52.40
54034;DHT22;39952;40.122;18.294;2022-09-17T09:48:15;33.90;51.70
54034;DHT22;39952;40.122;18.294;2022-09-17T09:51:33;33.10;53.10
54034;DHT22;39952;40.122;18.294;2022-09-17T09:54:58;32.90;53.60
54034;DHT22;39952;40.122;18.294;2022-09-17T09:58:21;32.10;53.30
54034;DHT22;39952;40.122;18.294;2022-09-17T10:01:31;31.70;53.60
54034;DHT22;39952;40.122;18.294;2022-09-17T10:04:39;31.50;54.30
54034;DHT22;39952;40.122;18.294;2022-09-17T10:07:46;32.50;51.70
54034;DHT22;39952;40.122;18.294;2022-09-17T10:10:57;33.90;47.60
54034;DHT22;39952;40.122;18.294;2022-09-17T10:14:22;33.80;46.60
54034;DHT22;39952;40.122;18.294;2022-09-17T10:17:29;32.30;46.60
54034;DHT22;39952;40.122;18.294;2022-09-17T10:20:36;31.50;47.20
54034;DHT22;39952;40.122;18.294;2022-09-17T10:23:54;31.20;46.40
54034;DHT22;39952;40.122;18.294;2022-09-17T10:27:03;30.30;47.60
54034;DHT22;39952;40.122;18.294;2022-09-17T10:30:16;30.00;46.90
54034;DHT22;39952;40.122;18.294;2022-09-17T10:33:25;30.10;47.80
54034;DHT22;39952;40.122;18.294;2022-09-17T10:36:40;30.20;48.30
54034;DHT22;39952;40.122;18.294;2022-09-17T10:39:47;30.10;49.70
54034;DHT22;39952;40.122;18.294;2022-09-17T10:43:17;29.70;51.80
54034;DHT22;39952;40.122;18.294;2022-09-17T10:46:27;29.20;54.10
54034;DHT22;39952;40.122;18.294;2022-09-17T10:49:38;28.90;56.00
54034;DHT22;39952;40.122;18.294;2022-09-17T10:52:47;28.70;55.90
54034;DHT22;39952;40.122;18.294;2022-09-17T10:55:57;28.70;58.40
54034;DHT22;39952;40.122;18.294;2022-09-17T10:59:38;28.80;58.70
54034;DHT22;39952;40.122;18.294;2022-09-17T11:10:25;28.20;57.90
54034;DHT22;39952;40.122;18.294;2022-09-17T11:13:36;27.90;58.10
54034;DHT22;39952;40.122;18.294;2022-09-17T11:16:53;27.60;59.40
54034;DHT22;39952;40.122;18.294;2022-09-17T11:20:23;27.20;60.60
54034;DHT22;39952;40.122;18.294;2022-09-17T11:27:30;27.30;61.40
54034;DHT22;39952;40.122;18.294;2022-09-17T11:30:52;27.40;61.10
54034;DHT22;39952;40.122;18.294;2022-09-17T11:37:41;28.20;58.70
54034;DHT22;39952;40.122;18.294;2022-09-17T11:41:00;28.60;56.90
54034;DHT22;39952;40.122;18.294;2022-09-17T11:44:12;29.00;56.30
54034;DHT22;39952;40.122;18.294;2022-09-17T11:47:24;29.40;56.10
54034;DHT22;39952;40.122;18.294;2022-09-17T11:50:35;29.80;53.70
54034;DHT22;39952;40.122;18.294;2022-09-17T11:53:45;29.80;51.60
54034;DHT22;39952;40.122;18.294;2022-09-17T11:57:00;29.90;51.20
54034;DHT22;39952;40.122;18.294;2022-09-17T12:00:13;29.80;50.00
54034;DHT22;39952;40.122;18.294;2022-09-17T12:03:24;29.70;49.50
54034;DHT22;39952;40.122;18.294;2022-09-17T12:06:37;29.70;48.50
54034;DHT22;39952;40.122;18.294;2022-09-17T12:09:48;29.70;47.80
54034;DHT22;39952;40.122;18.294;2022-09-17T12:13:02;29.90;46.60
54034;DHT22;39952;40.122;18.294;2022-09-17T12:16:15;30.30;46.30
54034;DHT22;39952;40.122;18.294;2022-09-17T12:19:28;30.50;45.20
54034;DHT22;39952;40.122;18.294;2022-09-17T12:22:38;30.60;45.50
54034;DHT22;39952;40.122;18.294;2022-09-17T12:25:58;30.40;46.10
54034;DHT22;39952;40.122;18.294;2022-09-17T12:29:10;30.50;46.10
54034;DHT22;39952;40.122;18.294;2022-09-17T12:36:23;30.60;44.10
54034;DHT22;39952;40.122;18.294;2022-09-17T12:39:59;30.40;43.70
54034;DHT22;39952;40.122;18.294;2022-09-17T12:43:27;30.10;44.50
54034;DHT22;39952;40.122;18.294;2022-09-17T12:46:51;30.20;44.40
54034;DHT22;39952;40.122;18.294;2022-09-17T12:50:12;30.00;44.60
54034;DHT22;39952;40.122;18.294;2022-09-17T12:53:25;30.20;44.80
54034;DHT22;39952;40.122;18.294;2022-09-17T12:56:45;30.50;44.30
54034;DHT22;39952;40.122;18.294;2022-09-17T13:00:00;30.70;44.20
54034;DHT22;39952;40.122;18.294;2022-09-17T13:03:18;30.80;43.60
54034;DHT22;39952;40.122;18.294;2022-09-17T13:06:51;30.90;44.20
54034;DHT22;39952;40.122;18.294;2022-09-17T13:10:17;31.20;43.00
54034;DHT22;39952;40.122;18.294;2022-09-17T13:13:35;32.00;42.20
54034;DHT22;39952;40.122;18.294;2022-09-17T13:16:48;32.50;41.50
54034;DHT22;39952;40.122;18.294;2022-09-17T13:20:04;32.80;41.30
54034;DHT22;39952;40.122;18.294;2022-09-17T13:23:29;32.30;41.40
54034;DHT22;39952;40.122;18.294;2022-09-17T13:26:36;31.40;42.80
54034;DHT22;39952;40.122;18.294;2022-09-17T13:30:00;31.10;43.80
54034;DHT22;39952;40.122;18.294;2022-09-17T13:33:07;31.10;44.50
54034;DHT22;39952;40.122;18.294;2022-09-17T13:36:39;31.50;43.30
54034;DHT22;39952;40.122;18.294;2022-09-17T13:39:47;31.80;43.10
54034;DHT22;39952;40.122;18.294;2022-09-17T13:42:56;32.10;42.20
54034;DHT22;39952;40.122;18.294;2022-09-17T13:46:08;32.10;42.40
54034;DHT22;39952;40.122;18.294;2022-09-17T13:49:17;31.80;42.20
54034;DHT22;39952;40.122;18.294;2022-09-17T13:52:38;31.50;43.10
54034;DHT22;39952;40.122;18.294;2022-09-17T13:55:48;31.50;42.20
54034;DHT22;39952;40.122;18.294;2022-09-17T13:59:04;31.40;42.20
54034;DHT22;39952;40.122;18.294;2022-09-17T14:02:33;31.60;42.50
54034;DHT22;39952;40.122;18.294;2022-09-17T14:05:40;31.70;42.20
54034;DHT22;39952;40.122;18.294;2022-09-17T14:08:49;31.30;42.50
54034;DHT22;39952;40.122;18.294;2022-09-17T14:11:58;31.30;42.20
54034;DHT22;39952;40.122;18.294;2022-09-17T14:18:56;31.10;42.50
54034;DHT22;39952;40.122;18.294;2022-09-17T14:22:14;31.00;42.40
54034;DHT22;39952;40.122;18.294;2022-09-17T14:25:31;30.70;42.80
54034;DHT22;39952;40.122;18.294;2022-09-17T14:28:42;30.80;42.90
54034;DHT22;39952;40.122;18.294;2022-09-17T14:31:53;30.70;42.90
54034;DHT22;39952;40.122;18.294;2022-09-17T14:35:11;30.80;43.20
54034;DHT22;39952;40.122;18.294;2022-09-17T14:38:20;31.10;42.90
54034;DHT22;39952;40.122;18.294;2022-09-17T14:41:32;31.00;43.90
54034;DHT22;39952;40.122;18.294;2022-09-17T14:44:48;30.70;45.00
54034;DHT22;39952;40.122;18.294;2022-09-17T14:48:16;30.80;44.60
54034;DHT22;39952;40.122;18.294;2022-09-17T14:51:28;30.80;45.00
54034;DHT22;39952;40.122;18.294;2022-09-17T14:54:35;30.80;44.90
54034;DHT22;39952;40.122;18.294;2022-09-17T14:57:44;30.60;44.80
54034;DHT22;39952;40.122;18.294;2022-09-17T15:00:52;30.50;44.40
54034;DHT22;39952;40.122;18.294;2022-09-17T15:04:20;30.40;44.20
54034;DHT22;39952;40.122;18.294;2022-09-17T15:07:27;30.30;43.80
54034;DHT22;39952;40.122;18.294;2022-09-17T15:10:35;30.30;44.60
54034;DHT22;39952;40.122;18.294;2022-09-17T15:13:49;30.30;44.30
54034;DHT22;39952;40.122;18.294;2022-09-17T15:16:58;30.30;44.90
54034;DHT22;39952;40.122;18.294;2022-09-17T15:20:06;30.20;45.30
54034;DHT22;39952;40.122;18.294;2022-09-17T15:23:19;30.20;46.00
54034;DHT22;39952;40.122;18.294;2022-09-17T15:26:32;30.10;45.70
54034;DHT22;39952;40.122;18.294;2022-09-17T15:29:44;30.10;46.60
54034;DHT22;39952;40.122;18.294;2022-09-17T15:32:53;30.20;47.10
54034;DHT22;39952;40.122;18.294;2022-09-17T15:36:02;30.10;47.80
54034;DHT22;39952;40.122;18.294;2022-09-17T15:39:29;30.00;49.10
54034;DHT22;39952;40.122;18.294;2022-09-17T15:42:36;30.10;49.70
54034;DHT22;39952;40.122;18.294;2022-09-17T15:45:44;29.90;50.10
54034;DHT22;39952;40.122;18.294;2022-09-17T15:48:51;30.00;50.70
54034;DHT22;39952;40.122;18.294;2022-09-17T15:52:25;30.10;50.60
54034;DHT22;39952;40.122;18.294;2022-09-17T15:55:37;30.00;50.10
54034;DHT22;39952;40.122;18.294;2022-09-17T15:58:54;29.90;50.70
54034;DHT22;39952;40.122;18.294;2022-09-17T16:02:04;29.90;51.00
54034;DHT22;39952;40.122;18.294;2022-09-17T16:08:51;30.10;50.80
54034;DHT22;39952;40.122;18.294;2022-09-17T16:11:58;30.30;49.70
54034;DHT22;39952;40.122;18.294;2022-09-17T16:15:06;30.30;49.30
54034;DHT22;39952;40.122;18.294;2022-09-17T16:18:14;30.20;48.80
54034;DHT22;39952;40.122;18.294;2022-09-17T16:21:21;30.00;48.50
54034;DHT22;39952;40.122;18.294;2022-09-17T16:24:29;30.10;48.40
54034;DHT22;39952;40.122;18.294;2022-09-17T16:27:43;30.00;48.90
54034;DHT22;39952;40.122;18.294;2022-09-17T16:30:50;29.80;49.20
54034;DHT22;39952;40.122;18.294;2022-09-17T16:33:58;29.80;49.70
54034;DHT22;39952;40.122;18.294;2022-09-17T16:37:05;29.70;49.90
54034;DHT22;39952;40.122;18.294;2022-09-17T16:40:12;29.50;49.90
54034;DHT22;39952;40.122;18.294;2022-09-17T16:43:18;29.50;50.00
54034;DHT22;39952;40.122;18.294;2022-09-17T16:46:26;29.40;49.90
54034;DHT22;39952;40.122;18.294;2022-09-17T16:49:34;29.40;50.20
54034;DHT22;39952;40.122;18.294;2022-09-17T16:52:42;29.20;51.10
54034;DHT22;39952;40.122;18.294;2022-09-17T16:55:49;29.20;51.50
54034;DHT22;39952;40.122;18.294;2022-09-17T16:58:56;29.00;51.50
54034;DHT22;39952;40.122;18.294;2022-09-17T17:02:03;29.00;51.40
54034;DHT22;39952;40.122;18.294;2022-09-17T17:05:12;29.20;51.30
54034;DHT22;39952;40.122;18.294;2022-09-17T17:08:20;29.20;51.30
54034;DHT22;39952;40.122;18.294;2022-09-17T17:11:27;29.20;51.30
54034;DHT22;39952;40.122;18.294;2022-09-17T17:14:33;29.30;51.30
54034;DHT22;39952;40.122;18.294;2022-09-17T17:17:40;29.30;51.70
54034;DHT22;39952;40.122;18.294;2022-09-17T17:20:48;29.30;52.10
54034;DHT22;39952;40.122;18.294;2022-09-17T17:23:55;29.30;52.30
54034;DHT22;39952;40.122;18.294;2022-09-17T17:27:01;29.20;52.90
54034;DHT22;39952;40.122;18.294;2022-09-17T17:30:10;29.30;53.00
54034;DHT22;39952;40.122;18.294;2022-09-17T17:33:21;29.20;53.50
54034;DHT22;39952;40.122;18.294;2022-09-17T17:36:29;29.20;53.50
54034;DHT22;39952;40.122;18.294;2022-09-17T17:39:37;29.10;54.10
54034;DHT22;39952;40.122;18.294;2022-09-17T17:42:43;29.10;54.30
54034;DHT22;39952;40.122;18.294;2022-09-17T17:45:51;29.10;54.60
54034;DHT22;39952;40.122;18.294;2022-09-17T17:48:58;29.10;54.30
54034;DHT22;39952;40.122;18.294;2022-09-17T17:52:06;29.10;54.80
54034;DHT22;39952;40.122;18.294;2022-09-17T17:55:14;29.00;54.80
54034;DHT22;39952;40.122;18.294;2022-09-17T17:58:21;29.00;54.70
54034;DHT22;39952;40.122;18.294;2022-09-17T18:01:29;29.00;54.70
54034;DHT22;39952;40.122;18.294;2022-09-17T18:04:36;29.10;54.90
54034;DHT22;39952;40.122;18.294;2022-09-17T18:07:44;29.10;54.40
54034;DHT22;39952;40.122;18.294;2022-09-17T18:10:53;29.00;54.40
54034;DHT22;39952;40.122;18.294;2022-09-17T18:14:00;29.00;55.10
54034;DHT22;39952;40.122;18.294;2022-09-17T18:17:07;29.10;54.50
54034;DHT22;39952;40.122;18.294;2022-09-17T18:20:14;29.10;54.60
54034;DHT22;39952;40.122;18.294;2022-09-17T18:23:23;29.00;54.40
54034;DHT22;39952;40.122;18.294;2022-09-17T18:26:30;28.80;55.20
54034;DHT22;39952;40.122;18.294;2022-09-17T18:29:38;28.50;55.60
54034;DHT22;39952;40.122;18.294;2022-09-17T18:32:46;28.40;56.20
54034;DHT22;39952;40.122;18.294;2022-09-17T18:35:59;28.30;56.30
54034;DHT22;39952;40.122;18.294;2022-09-17T18:39:11;28.10;57.30
54034;DHT22;39952;40.122;18.294;2022-09-17T18:42:38;28.30;55.40
54034;DHT22;39952;40.122;18.294;2022-09-17T18:45:52;28.50;55.30
54034;DHT22;39952;40.122;18.294;2022-09-17T18:48:59;28.80;54.60
54034;DHT22;39952;40.122;18.294;2022-09-17T18:52:06;29.00;54.40
54034;DHT22;39952;40.122;18.294;2022-09-17T18:55:14;29.00;53.90
54034;DHT22;39952;40.122;18.294;2022-09-17T18:58:21;29.10;53.70
54034;DHT22;39952;40.122;18.294;2022-09-17T19:01:29;29.00;53.80
54034;DHT22;39952;40.122;18.294;2022-09-17T19:04:36;29.00;53.40
54034;DHT22;39952;40.122;18.294;2022-09-17T19:07:44;28.40;54.50
54034;DHT22;39952;40.122;18.294;2022-09-17T19:10:53;27.60;56.10
54034;DHT22;39952;40.122;18.294;2022-09-17T19:14:00;27.50;56.40
54034;DHT22;39952;40.122;18.294;2022-09-17T19:17:07;27.30;57.50
54034;DHT22;39952;40.122;18.294;2022-09-17T19:20:14;27.00;57.40
54034;DHT22;39952;40.122;18.294;2022-09-17T19:23:24;26.80;57.80
54034;DHT22;39952;40.122;18.294;2022-09-17T19:26:32;26.80;57.30
54034;DHT22;39952;40.122;18.294;2022-09-17T19:29:39;26.90;57.20
54034;DHT22;39952;40.122;18.294;2022-09-17T19:32:45;26.80;56.90
54034;DHT22;39952;40.122;18.294;2022-09-17T19:35:52;26.80;57.10
54034;DHT22;39952;40.122;18.294;2022-09-17T19:39:04;26.80;56.80
54034;DHT22;39952;40.122;18.294;2022-09-17T19:42:12;26.50;57.20
54034;DHT22;39952;40.122;18.294;2022-09-17T19:45:19;26.50;57.60
54034;DHT22;39952;40.122;18.294;2022-09-17T19:48:26;26.40;56.90
54034;DHT22;39952;40.122;18.294;2022-09-17T19:51:32;26.30;56.40
54034;DHT22;39952;40.122;18.294;2022-09-17T19:54:39;25.80;57.70
54034;DHT22;39952;40.122;18.294;2022-09-17T19:57:48;25.70;57.80
54034;DHT22;39952;40.122;18.294;2022-09-17T20:00:55;25.80;58.10
54034;DHT22;39952;40.122;18.294;2022-09-17T20:04:04;26.00;57.60
54034;DHT22;39952;40.122;18.294;2022-09-17T20:07:12;26.10;56.10
54034;DHT22;39952;40.122;18.294;2022-09-17T20:10:18;25.90;56.00
54034;DHT22;39952;40.122;18.294;2022-09-17T20:13:27;25.90;55.60
54034;DHT22;39952;40.122;18.294;2022-09-17T20:16:35;25.90;55.90
54034;DHT22;39952;40.122;18.294;2022-09-17T20:19:42;26.10;56.00
54034;DHT22;39952;40.122;18.294;2022-09-17T20:22:50;26.30;55.80